sensor_id;sensor_type;location;lat;lon;timestamp;temperature;humidity
16263;DHT22;8239;48.594;8.598;2023-02-28T00:00:24;-4.50;87.20
16263;DHT22;8239;48.594;8.598;2023-02-28T00:02:51;-4.50;87.50
16263;DHT22;8239;48.594;8.598;2023-02-28T00:05:22;-4.40;87.90
16263;DHT22;8239;48.594;8.598;2023-02-28T00:07:50;-4.40;87.80
16263;DHT22;8239;48.594;8.598;2023-02-28T00:10:18;-4.30;88.00
16263;DHT22;8239;48.594;8.598;2023-02-28T00:12:47;-4.20;88.00
16263;DHT22;8239;48.594;8.598;2023-02-28T00:15:15;-4.20;87.80
16263;DHT22;8239;48.594;8.598;2023-02-28T00:17:43;-4.20;87.70
16263;DHT22;8239;48.594;8.598;2023-02-28T00:20:11;-4.10;87.90
16263;DHT22;8239;48.594;8.598;2023-02-28T00:22:40;-4.10;88.00
16263;DHT22;8239;48.594;8.598;2023-02-28T00:25:08;-4.00;88.20
16263;DHT22;8239;48.594;8.598;2023-02-28T00:27:35;-4.00;88.20
16263;DHT22;8239;48.594;8.598;2023-02-28T00:30:07;-3.90;88.00
16263;DHT22;8239;48.594;8.598;2023-02-28T00:32:34;-3.90;87.80
16263;DHT22;8239;48.594;8.598;2023-02-28T00:35:02;-3.80;87.80
16263;DHT22;8239;48.594;8.598;2023-02-28T00:37:29;-3.80;87.60
16263;DHT22;8239;48.594;8.598;2023-02-28T00:39:56;-3.70;87.40
16263;DHT22;8239;48.594;8.598;2023-02-28T00:42:24;-3.70;87.40
16263;DHT22;8239;48.594;8.598;2023-02-28T00:44:51;-3.70;87.20
16263;DHT22;8239;48.594;8.598;2023-02-28T00:47:19;-3.60;87.10
16263;DHT22;8239;48.594;8.598;2023-02-28T00:49:46;-3.60;86.90
16263;DHT22;8239;48.594;8.598;2023-02-28T00:52:13;-3.60;86.70
16263;DHT22;8239;48.594;8.598;2023-02-28T00:54:40;-3.50;86.70
16263;DHT22;8239;48.594;8.598;2023-02-28T00:57:07;-3.50;86.70
16263;DHT22;8239;48.594;8.598;2023-02-28T00:59:34;-3.60;86.40
16263;DHT22;8239;48.594;8.598;2023-02-28T01:02:01;-3.50;86.60
16263;DHT22;8239;48.594;8.598;2023-02-28T01:04:30;-3.50;86.70
16263;DHT22;8239;48.594;8.598;2023-02-28T01:06:57;-3.60;86.60
16263;DHT22;8239;48.594;8.598;2023-02-28T01:09:23;-3.60;86.80
16263;DHT22;8239;48.594;8.598;2023-02-28T01:11:50;-3.60;86.80
16263;DHT22;8239;48.594;8.598;2023-02-28T01:14:18;-3.60;86.90
16263;DHT22;8239;48.594;8.598;2023-02-28T01:16:45;-3.60;87.20
16263;DHT22;8239;48.594;8.598;2023-02-28T01:19:12;-3.60;87.30
16263;DHT22;8239;48.594;8.598;2023-02-28T01:21:41;-3.60;87.40
16263;DHT22;8239;48.594;8.598;2023-02-28T01:24:08;-3.60;87.50
16263;DHT22;8239;48.594;8.598;2023-02-28T01:26:35;-3.60;87.60
16263;DHT22;8239;48.594;8.598;2023-02-28T01:29:02;-3.60;87.90
16263;DHT22;8239;48.594;8.598;2023-02-28T01:31:29;-3.70;87.90
16263;DHT22;8239;48.594;8.598;2023-02-28T01:33:56;-3.70;88.10
16263;DHT22;8239;48.594;8.598;2023-02-28T01:36:24;-3.70;88.40
16263;DHT22;8239;48.594;8.598;2023-02-28T01:38:53;-3.80;88.30
16263;DHT22;8239;48.594;8.598;2023-02-28T01:41:22;-3.80;88.80
16263;DHT22;8239;48.594;8.598;2023-02-28T01:43:56;-3.80;89.00
16263;DHT22;8239;48.594;8.598;2023-02-28T01:46:24;-3.80;89.00
16263;DHT22;8239;48.594;8.598;2023-02-28T01:48:53;-3.90;89.40
16263;DHT22;8239;48.594;8.598;2023-02-28T01:51:22;-3.90;89.90
16263;DHT22;8239;48.594;8.598;2023-02-28T01:53:56;-3.90;90.10
16263;DHT22;8239;48.594;8.598;2023-02-28T01:56:28;-3.90;90.30
16263;DHT22;8239;48.594;8.598;2023-02-28T01:58:56;-4.00;90.80
16263;DHT22;8239;48.594;8.598;2023-02-28T02:01:23;-3.90;91.00
16263;DHT22;8239;48.594;8.598;2023-02-28T02:03:55;-3.90;91.20
16263;DHT22;8239;48.594;8.598;2023-02-28T02:06:25;-3.90;91.30
16263;DHT22;8239;48.594;8.598;2023-02-28T02:08:55;-3.90;91.50
16263;DHT22;8239;48.594;8.598;2023-02-28T02:11:23;-3.90;91.70
16263;DHT22;8239;48.594;8.598;2023-02-28T02:14:14;-3.90;91.90
16263;DHT22;8239;48.594;8.598;2023-02-28T02:17:04;-3.90;92.10
16263;DHT22;8239;48.594;8.598;2023-02-28T02:20:16;-3.90;92.20
16263;DHT22;8239;48.594;8.598;2023-02-28T02:26:16;-3.90;92.60
16263;DHT22;8239;48.594;8.598;2023-02-28T02:29:04;-3.90;92.60
16263;DHT22;8239;48.594;8.598;2023-02-28T02:32:05;-3.90;92.90
16263;DHT22;8239;48.594;8.598;2023-02-28T02:34:52;-3.90;93.10
16263;DHT22;8239;48.594;8.598;2023-02-28T02:37:27;-4.00;93.20
16263;DHT22;8239;48.594;8.598;2023-02-28T02:40:02;-4.00;93.50
16263;DHT22;8239;48.594;8.598;2023-02-28T02:42:36;-4.00;93.60
16263;DHT22;8239;48.594;8.598;2023-02-28T02:45:08;-4.00;93.70
16263;DHT22;8239;48.594;8.598;2023-02-28T02:47:37;-4.10;93.90
16263;DHT22;8239;48.594;8.598;2023-02-28T02:50:11;-4.10;94.00
16263;DHT22;8239;48.594;8.598;2023-02-28T02:52:43;-4.10;94.20
16263;DHT22;8239;48.594;8.598;2023-02-28T02:55:12;-4.20;94.20
16263;DHT22;8239;48.594;8.598;2023-02-28T02:57:45;-4.30;94.40
16263;DHT22;8239;48.594;8.598;2023-02-28T03:00:14;-4.40;94.70
16263;DHT22;8239;48.594;8.598;2023-02-28T03:02:43;-4.40;95.00
16263;DHT22;8239;48.594;8.598;2023-02-28T03:05:18;-4.50;95.40
16263;DHT22;8239;48.594;8.598;2023-02-28T03:07:46;-4.50;95.70
16263;DHT22;8239;48.594;8.598;2023-02-28T03:10:35;-4.60;96.10
16263;DHT22;8239;48.594;8.598;2023-02-28T03:13:26;-4.60;96.50
16263;DHT22;8239;48.594;8.598;2023-02-28T03:16:29;-4.60;96.70
16263;DHT22;8239;48.594;8.598;2023-02-28T03:19:05;-4.70;97.10
16263;DHT22;8239;48.594;8.598;2023-02-28T03:21:40;-4.70;97.30
16263;DHT22;8239;48.594;8.598;2023-02-28T03:24:13;-4.70;97.90
16263;DHT22;8239;48.594;8.598;2023-02-28T03:26:45;-4.70;98.20
16263;DHT22;8239;48.594;8.598;2023-02-28T03:29:19;-4.70;98.50
16263;DHT22;8239;48.594;8.598;2023-02-28T03:31:50;-4.70;98.80
16263;DHT22;8239;48.594;8.598;2023-02-28T03:34:24;-4.70;99.20
16263;DHT22;8239;48.594;8.598;2023-02-28T03:36:58;-4.70;99.50
16263;DHT22;8239;48.594;8.598;2023-02-28T03:39:31;-4.70;99.70
16263;DHT22;8239;48.594;8.598;2023-02-28T03:42:03;-4.70;99.80
16263;DHT22;8239;48.594;8.598;2023-02-28T03:44:34;-4.70;99.90
16263;DHT22;8239;48.594;8.598;2023-02-28T03:47:04;-4.70;99.90
16263;DHT22;8239;48.594;8.598;2023-02-28T03:49:36;-4.70;99.90
16263;DHT22;8239;48.594;8.598;2023-02-28T03:52:06;-4.70;99.90
16263;DHT22;8239;48.594;8.598;2023-02-28T03:54:39;-4.70;99.90
16263;DHT22;8239;48.594;8.598;2023-02-28T03:57:11;-4.70;99.90
16263;DHT22;8239;48.594;8.598;2023-02-28T03:59:44;-4.70;99.90
16263;DHT22;8239;48.594;8.598;2023-02-28T04:02:12;-4.70;99.90
16263;DHT22;8239;48.594;8.598;2023-02-28T04:04:39;-4.60;99.90
16263;DHT22;8239;48.594;8.598;2023-02-28T04:07:17;-4.60;99.90
16263;DHT22;8239;48.594;8.598;2023-02-28T04:09:44;-4.60;99.90
16263;DHT22;8239;48.594;8.598;2023-02-28T04:12:11;-4.60;99.90
16263;DHT22;8239;48.594;8.598;2023-02-28T04:14:38;-4.60;99.90
16263;DHT22;8239;48.594;8.598;2023-02-28T04:17:05;-4.50;99.90
16263;DHT22;8239;48.594;8.598;2023-02-28T04:19:32;-4.50;99.90
16263;DHT22;8239;48.594;8.598;2023-02-28T04:21:59;-4.50;99.90
16263;DHT22;8239;48.594;8.598;2023-02-28T04:24:28;-4.50;99.90
16263;DHT22;8239;48.594;8.598;2023-02-28T04:26:56;-4.40;99.90
16263;DHT22;8239;48.594;8.598;2023-02-28T04:29:25;-4.40;99.90
16263;DHT22;8239;48.594;8.598;2023-02-28T04:31:53;-4.40;99.90
16263;DHT22;8239;48.594;8.598;2023-02-28T04:34:20;-4.30;99.90
16263;DHT22;8239;48.594;8.598;2023-02-28T04:36:49;-4.30;99.90
16263;DHT22;8239;48.594;8.598;2023-02-28T04:39:16;-4.30;99.90
16263;DHT22;8239;48.594;8.598;2023-02-28T04:41:45;-4.20;99.90
16263;DHT22;8239;48.594;8.598;2023-02-28T04:44:13;-4.20;99.90
16263;DHT22;8239;48.594;8.598;2023-02-28T04:46:40;-4.20;99.90
16263;DHT22;8239;48.594;8.598;2023-02-28T04:49:08;-4.20;99.90
16263;DHT22;8239;48.594;8.598;2023-02-28T04:51:35;-4.10;99.90
16263;DHT22;8239;48.594;8.598;2023-02-28T04:54:02;-4.10;99.90
16263;DHT22;8239;48.594;8.598;2023-02-28T04:56:29;-4.10;99.90
16263;DHT22;8239;48.594;8.598;2023-02-28T04:58:58;-4.10;99.90
16263;DHT22;8239;48.594;8.598;2023-02-28T05:01:26;-4.10;99.90
16263;DHT22;8239;48.594;8.598;2023-02-28T05:03:56;-4.10;99.90
16263;DHT22;8239;48.594;8.598;2023-02-28T05:06:25;-4.00;99.90
16263;DHT22;8239;48.594;8.598;2023-02-28T05:08:53;-3.80;99.90
16263;DHT22;8239;48.594;8.598;2023-02-28T05:11:21;-3.50;99.90
16263;DHT22;8239;48.594;8.598;2023-02-28T05:13:50;-3.20;99.90
16263;DHT22;8239;48.594;8.598;2023-02-28T05:16:19;-3.00;99.90
16263;DHT22;8239;48.594;8.598;2023-02-28T05:18:46;-3.10;99.90
16263;DHT22;8239;48.594;8.598;2023-02-28T05:21:35;-3.10;99.90
16263;DHT22;8239;48.594;8.598;2023-02-28T05:24:04;-3.30;99.90
16263;DHT22;8239;48.594;8.598;2023-02-28T05:26:34;-3.40;99.90
16263;DHT22;8239;48.594;8.598;2023-02-28T05:29:01;-3.50;99.90
16263;DHT22;8239;48.594;8.598;2023-02-28T05:31:29;-3.60;99.90
16263;DHT22;8239;48.594;8.598;2023-02-28T05:33:56;-3.60;99.90
16263;DHT22;8239;48.594;8.598;2023-02-28T05:36:24;-3.70;99.90
16263;DHT22;8239;48.594;8.598;2023-02-28T05:38:51;-3.70;99.90
16263;DHT22;8239;48.594;8.598;2023-02-28T05:41:19;-3.80;99.90
16263;DHT22;8239;48.594;8.598;2023-02-28T05:43:47;-3.80;99.90
16263;DHT22;8239;48.594;8.598;2023-02-28T05:46:14;-3.80;99.90
16263;DHT22;8239;48.594;8.598;2023-02-28T05:48:46;-3.80;99.90
16263;DHT22;8239;48.594;8.598;2023-02-28T05:51:14;-3.80;99.90
16263;DHT22;8239;48.594;8.598;2023-02-28T05:53:41;-3.80;99.90
16263;DHT22;8239;48.594;8.598;2023-02-28T05:56:08;-3.90;99.90
16263;DHT22;8239;48.594;8.598;2023-02-28T05:58:35;-3.90;99.90
16263;DHT22;8239;48.594;8.598;2023-02-28T06:01:20;-3.90;99.90
16263;DHT22;8239;48.594;8.598;2023-02-28T06:03:48;-3.90;99.90
16263;DHT22;8239;48.594;8.598;2023-02-28T06:06:16;-3.90;99.90
16263;DHT22;8239;48.594;8.598;2023-02-28T06:08:43;-3.90;99.90
16263;DHT22;8239;48.594;8.598;2023-02-28T06:11:11;-3.90;99.90
16263;DHT22;8239;48.594;8.598;2023-02-28T06:13:38;-3.90;99.90
16263;DHT22;8239;48.594;8.598;2023-02-28T06:16:05;-3.90;99.90
16263;DHT22;8239;48.594;8.598;2023-02-28T06:18:33;-3.90;99.90
16263;DHT22;8239;48.594;8.598;2023-02-28T06:21:01;-3.90;99.90
16263;DHT22;8239;48.594;8.598;2023-02-28T06:23:28;-3.90;99.90
16263;DHT22;8239;48.594;8.598;2023-02-28T06:25:55;-3.90;99.90
16263;DHT22;8239;48.594;8.598;2023-02-28T06:28:24;-3.90;99.90
16263;DHT22;8239;48.594;8.598;2023-02-28T06:30:51;-3.90;99.90
16263;DHT22;8239;48.594;8.598;2023-02-28T06:33:18;-3.90;99.90
16263;DHT22;8239;48.594;8.598;2023-02-28T06:35:46;-3.80;99.90
16263;DHT22;8239;48.594;8.598;2023-02-28T06:38:15;-3.80;99.90
16263;DHT22;8239;48.594;8.598;2023-02-28T06:40:42;-3.80;99.90
16263;DHT22;8239;48.594;8.598;2023-02-28T06:43:09;-3.80;99.90
16263;DHT22;8239;48.594;8.598;2023-02-28T06:45:42;-3.80;99.90
16263;DHT22;8239;48.594;8.598;2023-02-28T06:48:09;-3.80;99.90
16263;DHT22;8239;48.594;8.598;2023-02-28T06:50:36;-3.80;99.90
16263;DHT22;8239;48.594;8.598;2023-02-28T06:53:03;-3.70;99.90
16263;DHT22;8239;48.594;8.598;2023-02-28T06:55:32;-3.70;99.90
16263;DHT22;8239;48.594;8.598;2023-02-28T06:57:59;-3.70;99.90
16263;DHT22;8239;48.594;8.598;2023-02-28T07:00:26;-3.70;99.90
16263;DHT22;8239;48.594;8.598;2023-02-28T07:02:53;-3.60;99.90
16263;DHT22;8239;48.594;8.598;2023-02-28T07:05:21;-3.60;99.90
16263;DHT22;8239;48.594;8.598;2023-02-28T07:07:48;-3.60;99.90
16263;DHT22;8239;48.594;8.598;2023-02-28T07:10:15;-3.60;99.90
16263;DHT22;8239;48.594;8.598;2023-02-28T07:12:44;-3.50;99.90
16263;DHT22;8239;48.594;8.598;2023-02-28T07:15:11;-3.50;99.90
16263;DHT22;8239;48.594;8.598;2023-02-28T07:17:38;-3.50;99.90
16263;DHT22;8239;48.594;8.598;2023-02-28T07:20:06;-3.50;99.90
16263;DHT22;8239;48.594;8.598;2023-02-28T07:22:33;-3.50;99.90
16263;DHT22;8239;48.594;8.598;2023-02-28T07:25:00;-3.40;99.90
16263;DHT22;8239;48.594;8.598;2023-02-28T07:27:28;-3.40;99.90
16263;DHT22;8239;48.594;8.598;2023-02-28T07:29:56;-3.30;99.90
16263;DHT22;8239;48.594;8.598;2023-02-28T07:32:27;-3.30;99.90
16263;DHT22;8239;48.594;8.598;2023-02-28T07:34:54;-3.30;99.90
16263;DHT22;8239;48.594;8.598;2023-02-28T07:37:21;-3.20;99.90
16263;DHT22;8239;48.594;8.598;2023-02-28T07:39:48;-3.20;99.90
16263;DHT22;8239;48.594;8.598;2023-02-28T07:42:16;-3.10;99.90
16263;DHT22;8239;48.594;8.598;2023-02-28T07:44:43;-3.00;99.90
16263;DHT22;8239;48.594;8.598;2023-02-28T07:47:12;-2.90;99.90
16263;DHT22;8239;48.594;8.598;2023-02-28T07:49:39;-2.80;99.90
16263;DHT22;8239;48.594;8.598;2023-02-28T07:52:06;-2.70;99.90
16263;DHT22;8239;48.594;8.598;2023-02-28T07:54:33;-2.60;99.90
16263;DHT22;8239;48.594;8.598;2023-02-28T07:57:00;-2.60;99.90
16263;DHT22;8239;48.594;8.598;2023-02-28T07:59:28;-2.60;99.90
16263;DHT22;8239;48.594;8.598;2023-02-28T08:01:57;-2.50;99.90
16263;DHT22;8239;48.594;8.598;2023-02-28T08:04:26;-2.50;99.90
16263;DHT22;8239;48.594;8.598;2023-02-28T08:06:53;-2.40;99.90
16263;DHT22;8239;48.594;8.598;2023-02-28T08:09:22;-2.40;99.90
16263;DHT22;8239;48.594;8.598;2023-02-28T08:11:49;-2.40;99.90
16263;DHT22;8239;48.594;8.598;2023-02-28T08:14:16;-2.40;99.90
16263;DHT22;8239;48.594;8.598;2023-02-28T08:16:43;-2.40;99.90
16263;DHT22;8239;48.594;8.598;2023-02-28T08:19:10;-2.30;99.90
16263;DHT22;8239;48.594;8.598;2023-02-28T08:21:39;-2.30;99.90
16263;DHT22;8239;48.594;8.598;2023-02-28T08:24:07;-2.40;99.90
16263;DHT22;8239;48.594;8.598;2023-02-28T08:26:34;-2.40;99.90
16263;DHT22;8239;48.594;8.598;2023-02-28T08:29:01;-2.30;99.90
16263;DHT22;8239;48.594;8.598;2023-02-28T08:31:28;-2.30;99.90
16263;DHT22;8239;48.594;8.598;2023-02-28T08:33:58;-2.30;99.90
16263;DHT22;8239;48.594;8.598;2023-02-28T08:36:26;-2.20;99.90
16263;DHT22;8239;48.594;8.598;2023-02-28T08:38:56;-2.20;99.90
16263;DHT22;8239;48.594;8.598;2023-02-28T08:41:25;-2.20;99.90
16263;DHT22;8239;48.594;8.598;2023-02-28T08:43:52;-2.20;99.90
16263;DHT22;8239;48.594;8.598;2023-02-28T08:46:20;-2.10;99.90
16263;DHT22;8239;48.594;8.598;2023-02-28T08:48:50;-2.10;99.90
16263;DHT22;8239;48.594;8.598;2023-02-28T08:51:18;-2.00;99.90
16263;DHT22;8239;48.594;8.598;2023-02-28T08:53:52;-2.00;99.90
16263;DHT22;8239;48.594;8.598;2023-02-28T08:56:21;-1.90;99.90
16263;DHT22;8239;48.594;8.598;2023-02-28T08:58:49;-1.90;99.90
16263;DHT22;8239;48.594;8.598;2023-02-28T09:01:18;-1.80;99.90
16263;DHT22;8239;48.594;8.598;2023-02-28T09:03:46;-1.80;99.90
16263;DHT22;8239;48.594;8.598;2023-02-28T09:06:14;-1.80;99.90
16263;DHT22;8239;48.594;8.598;2023-02-28T09:08:42;-1.70;99.90
16263;DHT22;8239;48.594;8.598;2023-02-28T09:11:10;-1.70;99.90
16263;DHT22;8239;48.594;8.598;2023-02-28T09:13:39;-1.60;99.90
16263;DHT22;8239;48.594;8.598;2023-02-28T09:16:07;-1.50;99.90
16263;DHT22;8239;48.594;8.598;2023-02-28T09:18:35;-1.50;99.90
16263;DHT22;8239;48.594;8.598;2023-02-28T09:21:03;-1.40;99.90
16263;DHT22;8239;48.594;8.598;2023-02-28T09:23:31;-1.30;99.90
16263;DHT22;8239;48.594;8.598;2023-02-28T09:26:00;-1.30;99.90
16263;DHT22;8239;48.594;8.598;2023-02-28T09:28:27;-1.20;99.90
16263;DHT22;8239;48.594;8.598;2023-02-28T09:30:56;-1.10;99.90
16263;DHT22;8239;48.594;8.598;2023-02-28T09:33:24;-1.10;99.90
16263;DHT22;8239;48.594;8.598;2023-02-28T09:35:58;-1.00;99.90
16263;DHT22;8239;48.594;8.598;2023-02-28T09:38:25;-1.00;99.90
16263;DHT22;8239;48.594;8.598;2023-02-28T09:40:55;-0.90;99.90
16263;DHT22;8239;48.594;8.598;2023-02-28T09:43:25;-0.90;99.90
16263;DHT22;8239;48.594;8.598;2023-02-28T09:45:59;-0.90;99.90
16263;DHT22;8239;48.594;8.598;2023-02-28T09:48:31;-1.00;99.90
16263;DHT22;8239;48.594;8.598;2023-02-28T09:51:03;-1.00;99.90
16263;DHT22;8239;48.594;8.598;2023-02-28T09:53:32;-0.90;99.90
16263;DHT22;8239;48.594;8.598;2023-02-28T09:56:04;-0.80;99.60
16263;DHT22;8239;48.594;8.598;2023-02-28T09:58:39;-0.80;99.60
16263;DHT22;8239;48.594;8.598;2023-02-28T10:01:12;-0.80;99.10
16263;DHT22;8239;48.594;8.598;2023-02-28T10:03:49;-0.70;98.90
16263;DHT22;8239;48.594;8.598;2023-02-28T10:06:19;-0.60;98.70
16263;DHT22;8239;48.594;8.598;2023-02-28T10:08:55;-0.60;98.30
16263;DHT22;8239;48.594;8.598;2023-02-28T10:11:23;-0.50;97.70
16263;DHT22;8239;48.594;8.598;2023-02-28T10:13:54;-0.50;98.10
16263;DHT22;8239;48.594;8.598;2023-02-28T10:16:32;-0.40;97.90
16263;DHT22;8239;48.594;8.598;2023-02-28T10:19:04;-0.30;97.40
16263;DHT22;8239;48.594;8.598;2023-02-28T10:21:35;-0.30;96.70
16263;DHT22;8239;48.594;8.598;2023-02-28T10:24:15;-0.30;96.40
16263;DHT22;8239;48.594;8.598;2023-02-28T10:26:46;-0.30;95.80
16263;DHT22;8239;48.594;8.598;2023-02-28T10:29:14;-0.40;95.90
16263;DHT22;8239;48.594;8.598;2023-02-28T10:31:43;-0.50;95.90
16263;DHT22;8239;48.594;8.598;2023-02-28T10:34:12;-0.60;95.60
16263;DHT22;8239;48.594;8.598;2023-02-28T10:36:41;-0.60;96.30
16263;DHT22;8239;48.594;8.598;2023-02-28T10:39:38;-0.50;96.10
16263;DHT22;8239;48.594;8.598;2023-02-28T10:42:19;-0.40;96.10
16263;DHT22;8239;48.594;8.598;2023-02-28T10:44:48;-0.20;96.00
16263;DHT22;8239;48.594;8.598;2023-02-28T10:47:20;-0.20;95.60
16263;DHT22;8239;48.594;8.598;2023-02-28T10:49:50;-0.10;95.10
16263;DHT22;8239;48.594;8.598;2023-02-28T10:52:39;-0.10;94.80
16263;DHT22;8239;48.594;8.598;2023-02-28T10:55:23;0.00;94.70
16263;DHT22;8239;48.594;8.598;2023-02-28T10:57:51;0.00;94.30
16263;DHT22;8239;48.594;8.598;2023-02-28T11:00:20;0.00;93.90
16263;DHT22;8239;48.594;8.598;2023-02-28T11:02:49;0.10;93.80
16263;DHT22;8239;48.594;8.598;2023-02-28T11:05:24;0.10;93.70
16263;DHT22;8239;48.594;8.598;2023-02-28T11:07:52;0.30;94.00
16263;DHT22;8239;48.594;8.598;2023-02-28T11:10:24;0.50;93.40
16263;DHT22;8239;48.594;8.598;2023-02-28T11:12:55;0.60;93.40
16263;DHT22;8239;48.594;8.598;2023-02-28T11:15:25;0.60;92.20
16263;DHT22;8239;48.594;8.598;2023-02-28T11:17:58;0.70;92.40
16263;DHT22;8239;48.594;8.598;2023-02-28T11:20:28;0.70;91.60
16263;DHT22;8239;48.594;8.598;2023-02-28T11:23:01;0.80;91.80
16263;DHT22;8239;48.594;8.598;2023-02-28T11:25:31;0.90;91.70
16263;DHT22;8239;48.594;8.598;2023-02-28T11:28:00;1.00;91.10
16263;DHT22;8239;48.594;8.598;2023-02-28T11:30:33;1.00;90.60
16263;DHT22;8239;48.594;8.598;2023-02-28T11:33:23;1.00;90.70
16263;DHT22;8239;48.594;8.598;2023-02-28T11:35:52;1.00;90.50
16263;DHT22;8239;48.594;8.598;2023-02-28T11:38:19;1.00;89.60
16263;DHT22;8239;48.594;8.598;2023-02-28T11:40:52;1.00;89.10
16263;DHT22;8239;48.594;8.598;2023-02-28T11:43:34;1.00;89.50
16263;DHT22;8239;48.594;8.598;2023-02-28T11:46:14;1.10;89.20
16263;DHT22;8239;48.594;8.598;2023-02-28T11:48:53;1.20;88.30
16263;DHT22;8239;48.594;8.598;2023-02-28T11:51:29;1.40;88.20
16263;DHT22;8239;48.594;8.598;2023-02-28T11:57:00;1.60;86.10
16263;DHT22;8239;48.594;8.598;2023-02-28T11:59:39;1.80;85.10
16263;DHT22;8239;48.594;8.598;2023-02-28T12:02:33;1.90;83.50
16263;DHT22;8239;48.594;8.598;2023-02-28T12:05:20;2.00;85.00
16263;DHT22;8239;48.594;8.598;2023-02-28T12:07:59;2.10;81.30
16263;DHT22;8239;48.594;8.598;2023-02-28T12:10:29;2.20;81.00
16263;DHT22;8239;48.594;8.598;2023-02-28T12:13:06;2.40;79.40
16263;DHT22;8239;48.594;8.598;2023-02-28T12:15:45;2.50;78.30
16263;DHT22;8239;48.594;8.598;2023-02-28T12:18:30;2.50;76.80
16263;DHT22;8239;48.594;8.598;2023-02-28T12:21:08;2.70;77.00
16263;DHT22;8239;48.594;8.598;2023-02-28T12:23:56;2.80;76.20
16263;DHT22;8239;48.594;8.598;2023-02-28T12:26:32;3.10;76.10
16263;DHT22;8239;48.594;8.598;2023-02-28T12:29:08;3.70;74.80
16263;DHT22;8239;48.594;8.598;2023-02-28T12:31:40;4.50;72.60
16263;DHT22;8239;48.594;8.598;2023-02-28T12:34:12;5.10;68.70
16263;DHT22;8239;48.594;8.598;2023-02-28T12:36:42;5.80;65.40
16263;DHT22;8239;48.594;8.598;2023-02-28T12:39:14;6.10;61.70
16263;DHT22;8239;48.594;8.598;2023-02-28T12:41:45;6.30;58.90
16263;DHT22;8239;48.594;8.598;2023-02-28T12:44:18;6.40;60.80
16263;DHT22;8239;48.594;8.598;2023-02-28T12:46:49;6.70;58.10
16263;DHT22;8239;48.594;8.598;2023-02-28T12:49:21;6.60;57.50
16263;DHT22;8239;48.594;8.598;2023-02-28T12:51:50;6.70;56.50
16263;DHT22;8239;48.594;8.598;2023-02-28T12:54:23;6.60;56.40
16263;DHT22;8239;48.594;8.598;2023-02-28T12:56:57;7.00;56.10
16263;DHT22;8239;48.594;8.598;2023-02-28T12:59:30;8.00;56.80
16263;DHT22;8239;48.594;8.598;2023-02-28T13:02:14;8.90;51.50
16263;DHT22;8239;48.594;8.598;2023-02-28T13:05:07;9.40;50.40
16263;DHT22;8239;48.594;8.598;2023-02-28T13:08:08;10.70;46.90
16263;DHT22;8239;48.594;8.598;2023-02-28T13:10:44;11.20;43.90
16263;DHT22;8239;48.594;8.598;2023-02-28T13:13:19;10.80;44.20
16263;DHT22;8239;48.594;8.598;2023-02-28T13:16:02;10.00;43.00
16263;DHT22;8239;48.594;8.598;2023-02-28T13:18:32;9.70;45.60
16263;DHT22;8239;48.594;8.598;2023-02-28T13:21:02;10.20;46.30
16263;DHT22;8239;48.594;8.598;2023-02-28T13:23:59;10.80;43.60
16263;DHT22;8239;48.594;8.598;2023-02-28T13:29:31;11.40;41.00
16263;DHT22;8239;48.594;8.598;2023-02-28T13:32:29;11.50;42.20
16263;DHT22;8239;48.594;8.598;2023-02-28T13:35:35;12.70;43.40
16263;DHT22;8239;48.594;8.598;2023-02-28T13:38:34;14.70;40.40
16263;DHT22;8239;48.594;8.598;2023-02-28T13:44:08;17.40;35.40
16263;DHT22;8239;48.594;8.598;2023-02-28T13:49:33;17.20;31.70
16263;DHT22;8239;48.594;8.598;2023-02-28T13:52:09;15.60;31.60
16263;DHT22;8239;48.594;8.598;2023-02-28T13:54:50;14.20;32.90
16263;DHT22;8239;48.594;8.598;2023-02-28T13:57:30;13.00;36.00
16263;DHT22;8239;48.594;8.598;2023-02-28T14:00:15;12.60;37.70
16263;DHT22;8239;48.594;8.598;2023-02-28T14:03:11;13.00;37.20
16263;DHT22;8239;48.594;8.598;2023-02-28T14:05:40;12.80;36.70
16263;DHT22;8239;48.594;8.598;2023-02-28T14:08:12;12.70;35.90
16263;DHT22;8239;48.594;8.598;2023-02-28T14:10:44;12.80;37.30
16263;DHT22;8239;48.594;8.598;2023-02-28T14:15:59;13.20;36.30
16263;DHT22;8239;48.594;8.598;2023-02-28T14:18:30;13.80;37.00
16263;DHT22;8239;48.594;8.598;2023-02-28T14:21:02;14.30;35.20
16263;DHT22;8239;48.594;8.598;2023-02-28T14:23:52;14.30;34.80
16263;DHT22;8239;48.594;8.598;2023-02-28T14:26:36;15.10;35.20
16263;DHT22;8239;48.594;8.598;2023-02-28T14:29:26;15.40;33.30
16263;DHT22;8239;48.594;8.598;2023-02-28T14:32:13;15.40;33.20
16263;DHT22;8239;48.594;8.598;2023-02-28T14:34:48;15.50;33.50
16263;DHT22;8239;48.594;8.598;2023-02-28T14:37:28;15.40;31.80
16263;DHT22;8239;48.594;8.598;2023-02-28T14:40:00;14.60;33.00
16263;DHT22;8239;48.594;8.598;2023-02-28T14:42:29;14.60;33.70
16263;DHT22;8239;48.594;8.598;2023-02-28T14:44:57;14.50;33.70
16263;DHT22;8239;48.594;8.598;2023-02-28T14:47:33;14.50;33.70
16263;DHT22;8239;48.594;8.598;2023-02-28T14:50:04;14.40;33.20
16263;DHT22;8239;48.594;8.598;2023-02-28T14:52:32;14.20;33.70
16263;DHT22;8239;48.594;8.598;2023-02-28T14:55:03;14.40;33.40
16263;DHT22;8239;48.594;8.598;2023-02-28T14:57:32;14.90;34.10
16263;DHT22;8239;48.594;8.598;2023-02-28T15:00:09;15.10;34.50
16263;DHT22;8239;48.594;8.598;2023-02-28T15:02:40;15.20;35.50
16263;DHT22;8239;48.594;8.598;2023-02-28T15:05:24;15.60;36.10
16263;DHT22;8239;48.594;8.598;2023-02-28T15:08:10;16.00;34.10
16263;DHT22;8239;48.594;8.598;2023-02-28T15:10:40;15.40;31.80
16263;DHT22;8239;48.594;8.598;2023-02-28T15:13:13;15.30;32.70
16263;DHT22;8239;48.594;8.598;2023-02-28T15:15:44;15.50;33.60
16263;DHT22;8239;48.594;8.598;2023-02-28T15:18:21;15.10;32.50
16263;DHT22;8239;48.594;8.598;2023-02-28T15:20:50;15.10;33.50
16263;DHT22;8239;48.594;8.598;2023-02-28T15:23:19;15.00;33.30
16263;DHT22;8239;48.594;8.598;2023-02-28T15:25:48;15.50;33.90
16263;DHT22;8239;48.594;8.598;2023-02-28T15:28:19;15.80;32.40
16263;DHT22;8239;48.594;8.598;2023-02-28T15:30:58;15.00;32.00
16263;DHT22;8239;48.594;8.598;2023-02-28T15:33:28;14.00;33.10
16263;DHT22;8239;48.594;8.598;2023-02-28T15:36:13;13.60;34.30
16263;DHT22;8239;48.594;8.598;2023-02-28T15:38:43;13.90;35.30
16263;DHT22;8239;48.594;8.598;2023-02-28T15:41:22;14.10;34.10
16263;DHT22;8239;48.594;8.598;2023-02-28T15:44:14;14.00;33.60
16263;DHT22;8239;48.594;8.598;2023-02-28T15:46:44;13.50;34.50
16263;DHT22;8239;48.594;8.598;2023-02-28T15:49:19;13.40;34.60
16263;DHT22;8239;48.594;8.598;2023-02-28T15:51:53;12.90;34.80
16263;DHT22;8239;48.594;8.598;2023-02-28T15:54:24;12.70;35.90
16263;DHT22;8239;48.594;8.598;2023-02-28T15:56:55;12.60;35.60
16263;DHT22;8239;48.594;8.598;2023-02-28T15:59:24;12.30;36.20
16263;DHT22;8239;48.594;8.598;2023-02-28T16:02:15;12.20;36.20
16263;DHT22;8239;48.594;8.598;2023-02-28T16:05:12;11.70;36.40
16263;DHT22;8239;48.594;8.598;2023-02-28T16:07:42;11.70;37.00
16263;DHT22;8239;48.594;8.598;2023-02-28T16:10:11;11.60;37.00
16263;DHT22;8239;48.594;8.598;2023-02-28T16:12:42;11.40;37.10
16263;DHT22;8239;48.594;8.598;2023-02-28T16:15:18;11.00;37.60
16263;DHT22;8239;48.594;8.598;2023-02-28T16:17:46;10.80;38.30
16263;DHT22;8239;48.594;8.598;2023-02-28T16:20:17;10.90;38.40
16263;DHT22;8239;48.594;8.598;2023-02-28T16:22:44;10.80;38.50
16263;DHT22;8239;48.594;8.598;2023-02-28T16:25:15;10.60;38.70
16263;DHT22;8239;48.594;8.598;2023-02-28T16:27:43;10.20;39.40
16263;DHT22;8239;48.594;8.598;2023-02-28T16:30:17;10.10;39.90
16263;DHT22;8239;48.594;8.598;2023-02-28T16:32:46;10.30;40.20
16263;DHT22;8239;48.594;8.598;2023-02-28T16:35:13;10.30;39.60